Time;durP1;ratioP1;P1;durP2;ratioP2;P2;SDS_P1;SDS_P2;PMS_P1;PMS_P2;Temp;Humidity;BMP_temperature;BMP_pressure;BME280_temperature;BME280_humidity;BME280_pressure;Samples;Min_cycle;Max_cycle;Signal;HPM_P1;HPM_P2
2022/08/07 00:01:49;;;;;;;10.48;9.57;;;;;;;20.07;82.60;96191.19;4896207;29;20230;-83
2022/08/07 00:04:15;;;;;;;9.80;8.85;;;;;;;20.06;82.01;96194.81;4898432;29;20245;-83
2022/08/07 00:06:42;;;;;;;9.45;8.63;;;;;;;19.98;81.92;96186.28;4880256;29;20687;-83
2022/08/07 00:09:09;;;;;;;9.02;8.00;;;;;;;20.02;81.64;96191.84;4879467;29;20223;-84
2022/08/07 00:11:35;;;;;;;8.85;8.05;;;;;;;19.99;81.18;96187.88;4895075;29;20195;-83
2022/08/07 00:14:01;;;;;;;8.82;8.00;;;;;;;19.95;81.55;96191.94;4884017;29;20235;-83
2022/08/07 00:16:28;;;;;;;8.60;7.90;;;;;;;20.00;81.47;96193.91;4878368;29;20302;-83
2022/08/07 00:18:55;;;;;;;8.38;7.57;;;;;;;19.91;81.14;96198.63;4889835;29;20730;-83
2022/08/07 00:21:22;;;;;;;8.45;7.65;;;;;;;19.87;81.35;96192.22;4897217;29;20226;-83
2022/08/07 00:23:48;;;;;;;7.88;7.20;;;;;;;19.97;80.57;96195.13;4888445;29;20290;-84
2022/08/07 00:26:15;;;;;;;7.85;6.97;;;;;;;20.04;79.22;96202.88;4880412;29;20207;-83
2022/08/07 00:28:42;;;;;;;7.72;7.13;;;;;;;20.03;78.90;96201.28;4896057;29;20231;-84
2022/08/07 00:31:10;;;;;;;7.93;7.15;;;;;;;19.97;78.09;96197.75;4884954;29;20203;-83
2022/08/07 00:33:37;;;;;;;7.53;6.93;;;;;;;19.96;78.02;96198.75;4894150;29;20230;-83
2022/08/07 00:36:07;;;;;;;7.28;6.68;;;;;;;20.10;77.90;96196.78;4889952;29;20214;-84
2022/08/07 00:38:35;;;;;;;6.60;6.00;;;;;;;19.93;76.37;96193.97;4884753;29;20795;-84
2022/08/07 00:41:02;;;;;;;6.60;6.00;;;;;;;19.87;76.08;96186.19;4893523;29;20250;-83
2022/08/07 00:43:29;;;;;;;6.32;5.72;;;;;;;19.84;75.93;96176.19;4903183;29;20286;-83
2022/08/07 00:45:55;;;;;;;6.63;6.03;;;;;;;19.81;75.75;96180.06;4902650;29;20258;-83
2022/08/07 00:48:21;;;;;;;7.97;5.57;;;;;;;19.76;74.86;96172.06;4892020;29;20223;-83
2022/08/07 00:50:48;;;;;;;5.60;5.00;;;;;;;19.63;74.69;96174.81;4892451;29;20198;-83
2022/08/07 00:53:16;;;;;;;5.60;5.15;;;;;;;19.66;74.34;96172.56;4893467;29;20279;-84
2022/08/07 00:55:43;;;;;;;5.28;4.63;;;;;;;19.65;73.61;96176.19;4884987;29;20211;-84
2022/08/07 00:58:09;;;;;;;5.43;4.70;;;;;;;19.57;73.71;96165.25;4892739;29;20266;-84
2022/08/07 01:00:35;;;;;;;5.57;4.95;;;;;;;19.60;73.61;96172.66;4892243;29;20207;-83
2022/08/07 01:03:02;;;;;;;5.40;4.78;;;;;;;19.62;72.92;96181.09;4883889;29;20231;-83
2022/08/07 01:05:29;;;;;;;4.80;4.38;;;;;;;19.51;72.49;96176.56;4891999;29;20218;-83
2022/08/07 01:07:56;;;;;;;5.05;4.65;;;;;;;19.42;73.08;96172.63;4892989;29;20228;-83
2022/08/07 01:10:24;;;;;;;4.75;4.35;;;;;;;19.36;73.23;96168.28;4889835;29;20266;-83
2022/08/07 01:12:50;;;;;;;4.40;4.00;;;;;;;19.40;72.68;96170.22;4901789;29;20239;-83
2022/08/07 01:15:17;;;;;;;4.60;4.10;;;;;;;19.39;72.47;96170.44;4887282;29;20215;-83
2022/08/07 01:17:43;;;;;;;4.35;3.95;;;;;;;19.37;72.77;96162.81;4883656;29;20208;-83
2022/08/07 01:20:12;;;;;;;4.65;4.15;;;;;;;19.50;72.26;96161.91;4896593;29;20217;-84
2022/08/07 01:22:41;;;;;;;3.78;3.47;;;;;;;19.60;72.12;96163.00;4887827;29;20239;-84
2022/08/07 01:25:10;;;;;;;5.43;4.10;;;;;;;19.63;72.42;96162.56;4896893;29;20203;-84
2022/08/07 01:27:37;;;;;;;5.07;4.57;;;;;;;19.64;73.29;96153.69;4902275;29;20691;-83
2022/08/07 01:30:04;;;;;;;5.07;4.57;;;;;;;19.63;73.45;96157.31;4890236;29;20680;-84
2022/08/07 01:32:32;;;;;;;4.72;4.32;;;;;;;19.53;73.77;96151.84;4884307;29;20263;-84
2022/08/07 01:34:59;;;;;;;6.55;4.60;;;;;;;19.48;74.46;96148.22;4885814;29;20204;-84
2022/08/07 01:37:26;;;;;;;5.07;4.65;;;;;;;19.36;75.03;96156.00;4884676;29;20216;-84
2022/08/07 01:39:57;;;;;;;5.30;4.15;;;;;;;19.34;75.30;96152.81;4892077;29;20963;-83
2022/08/07 01:42:25;;;;;;;4.75;4.32;;;;;;;19.35;75.48;96156.22;4895766;29;20303;-83
2022/08/07 01:44:51;;;;;;;4.80;4.28;;;;;;;19.33;76.04;96159.06;4884094;29;20259;-82
2022/08/07 01:47:18;;;;;;;4.78;4.28;;;;;;;19.41;75.82;96157.97;4889340;29;20255;-83
2022/08/07 01:49:45;;;;;;;5.20;4.70;;;;;;;19.43;76.30;96156.75;4898380;29;20279;-83
2022/08/07 01:52:13;;;;;;;4.70;4.30;;;;;;;19.48;76.99;96153.47;4882260;29;20196;-84
2022/08/07 01:54:41;;;;;;;5.18;4.78;;;;;;;19.59;77.15;96144.94;4886603;29;20279;-84
2022/08/07 01:57:12;;;;;;;6.00;5.43;;;;;;;19.63;77.46;96146.88;4902876;29;20239;-83
2022/08/07 01:59:43;;;;;;;5.45;4.95;;;;;;;19.60;77.86;96139.50;4898895;29;20247;-83
2022/08/07 02:02:15;;;;;;;5.78;5.28;;;;;;;19.52;78.75;96131.94;4882133;29;20353;-82
2022/08/07 02:04:49;;;;;;;5.65;5.10;;;;;;;19.50;78.64;96133.97;4887482;29;20223;-83
2022/08/07 02:07:17;;;;;;;5.45;4.95;;;;;;;19.50;78.64;96135.78;4901798;29;20258;-83
2022/08/07 02:09:46;;;;;;;5.60;5.10;;;;;;;19.49;78.88;96142.78;4896054;29;20227;-83
2022/08/07 02:12:16;;;;;;;5.57;5.00;;;;;;;19.46;78.52;96129.38;4883078;29;20235;-83
2022/08/07 02:14:45;;;;;;;5.32;4.82;;;;;;;19.48;78.27;96135.97;4882717;29;20227;-83
2022/08/07 02:17:14;;;;;;;5.57;5.07;;;;;;;19.41;78.51;96127.44;4885933;29;20330;-83
2022/08/07 02:19:44;;;;;;;5.97;5.00;;;;;;;19.26;78.07;96137.41;4901719;29;20763;-82
2022/08/07 02:22:12;;;;;;;4.68;4.30;;;;;;;19.30;77.75;96134.16;4899266;29;20222;-83
2022/08/07 02:24:40;;;;;;;4.30;3.95;;;;;;;19.40;77.25;96132.88;4888527;29;20255;-83
2022/08/07 02:27:07;;;;;;;4.60;4.20;;;;;;;19.32;77.30;96132.13;4900908;29;20214;-83
2022/08/07 02:29:36;;;;;;;4.30;3.90;;;;;;;19.29;77.34;96134.38;4883543;29;20223;-83
2022/08/07 02:32:05;;;;;;;4.53;4.20;;;;;;;19.14;77.89;96129.53;4882408;29;20241;-83
2022/08/07 02:34:33;;;;;;;4.68;4.30;;;;;;;19.01;79.17;96114.00;4883004;29;20291;-84
2022/08/07 02:37:04;;;;;;;4.57;4.28;;;;;;;18.97;79.10;96112.81;4882239;29;20210;-83
2022/08/07 02:39:32;;;;;;;4.30;3.90;;;;;;;19.00;79.39;96112.41;4883166;29;20234;-83
2022/08/07 02:42:00;;;;;;;4.40;4.03;;;;;;;18.97;79.25;96112.81;4882109;29;20318;-83
2022/08/07 02:44:28;;;;;;;4.93;4.40;;;;;;;18.94;79.81;96116.66;4899367;29;20282;-83
2022/08/07 02:46:57;;;;;;;4.88;4.45;;;;;;;18.85;80.50;96117.97;4900969;29;20210;-83
2022/08/07 02:49:23;;;;;;;4.22;3.80;;;;;;;19.03;79.80;96113.78;4884692;29;20735;-83
2022/08/07 02:51:50;;;;;;;4.65;4.25;;;;;;;19.10;79.41;96120.53;4881457;29;20199;-83
2022/08/07 02:54:18;;;;;;;5.15;4.65;;;;;;;19.12;80.04;96117.69;4896892;29;20287;-83
2022/08/07 02:56:47;;;;;;;5.05;4.65;;;;;;;18.94;81.62;96116.66;4900308;29;20678;-83
2022/08/07 02:59:18;;;;;;;5.25;4.75;;;;;;;18.86;82.71;96116.13;4900593;29;20278;-83
2022/08/07 03:01:45;;;;;;;5.72;5.22;;;;;;;18.98;81.57;96115.22;4883558;29;20671;-83
2022/08/07 03:04:14;;;;;;;5.78;5.28;;;;;;;18.95;82.61;96120.06;4895890;29;20291;-83
2022/08/07 03:06:42;;;;;;;5.30;4.80;;;;;;;18.91;82.69;96122.31;4900465;29;20246;-83
2022/08/07 03:09:09;;;;;;;5.72;5.22;;;;;;;18.90;82.76;96119.91;4886873;29;20227;-82
2022/08/07 03:11:36;;;;;;;5.60;5.10;;;;;;;18.94;82.87;96108.03;4881841;29;20803;-83
2022/08/07 03:14:05;;;;;;;6.65;4.90;;;;;;;19.00;82.39;96109.00;4893333;29;20238;-83
2022/08/07 03:16:33;;;;;;;5.35;4.93;;;;;;;19.01;81.93;96119.22;4891487;29;20299;-82
2022/08/07 03:19:00;;;;;;;5.60;5.10;;;;;;;19.01;81.68;96121.81;4881779;29;20230;-83
2022/08/07 03:21:29;;;;;;;5.43;4.93;;;;;;;18.87;81.78;96117.72;4888862;29;20227;-83
2022/08/07 03:23:57;;;;;;;5.40;5.00;;;;;;;18.97;81.06;96118.84;4899895;29;20239;-82
2022/08/07 03:26:27;;;;;;;5.07;4.68;;;;;;;19.07;81.10;96122.75;4890811;29;20203;-83
2022/08/07 03:28:56;;;;;;;5.22;4.65;;;;;;;19.06;80.67;96118.56;4914935;29;20722;-82
2022/08/07 03:31:25;;;;;;;5.40;5.00;;;;;;;19.00;80.77;96122.03;4909166;29;20209;-82
2022/08/07 03:33:55;;;;;;;4.53;4.13;;;;;;;19.18;84.26;96129.88;4893989;29;20369;-83
2022/08/07 03:36:24;;;;;;;6.03;4.50;;;;;;;19.50;82.72;96125.34;4897218;29;20258;-83
2022/08/07 03:38:54;;;;;;;4.70;4.30;;;;;;;19.66;79.61;96127.34;4888985;29;20585;-82
2022/08/07 03:41:21;;;;;;;4.07;3.75;;;;;;;19.83;80.55;96124.94;4879202;29;20200;-83
2022/08/07 03:43:48;;;;;;;4.88;4.22;;;;;;;19.90;79.16;96126.44;4879700;29;20239;-83
2022/08/07 03:46:15;;;;;;;6.43;3.60;;;;;;;20.06;81.20;96127.63;4881302;29;20196;-82
2022/08/07 03:48:42;;;;;;;4.22;3.88;;;;;;;20.20;78.16;96121.22;4888860;29;20645;-83
2022/08/07 03:51:10;;;;;;;4.47;3.80;;;;;;;20.17;78.19;96118.25;4886848;29;20203;-84
2022/08/07 03:53:38;;;;;;;4.85;4.35;;;;;;;20.19;75.06;96119.63;4885145;29;20251;-84
2022/08/07 03:56:07;;;;;;;5.35;4.28;;;;;;;20.20;76.29;96112.56;4882675;29;20302;-84
2022/08/07 03:58:34;;;;;;;5.00;4.15;;;;;;;20.18;75.62;96114.63;4878534;29;20901;-83
2022/08/07 04:01:02;;;;;;;4.57;3.80;;;;;;;20.23;75.67;96106.88;4878320;29;20199;-83
2022/08/07 04:03:28;;;;;;;4.95;4.45;;;;;;;20.05;75.24;96106.94;4877055;29;20662;-82
2022/08/07 04:05:55;;;;;;;5.03;4.55;;;;;;;19.90;75.76;96105.53;4886819;29;20218;-84
2022/08/07 04:08:21;;;;;;;5.18;4.68;;;;;;;19.84;76.40;96111.63;4888900;29;20640;-84
2022/08/07 04:10:48;;;;;;;5.15;4.65;;;;;;;19.94;75.05;96104.09;4894441;29;20269;-83
2022/08/07 04:13:17;;;;;;;5.20;4.80;;;;;;;19.92;74.63;96111.34;4915183;29;20232;-82
2022/08/07 04:15:45;;;;;;;5.68;5.03;;;;;;;19.94;74.41;96116.34;4880164;29;20204;-82
2022/08/07 04:18:12;;;;;;;5.15;4.65;;;;;;;19.94;74.96;96105.91;4896173;29;20221;-82
2022/08/07 04:20:39;;;;;;;4.22;3.83;;;;;;;19.85;74.74;96115.84;4914243;29;20246;-82
2022/08/07 04:23:06;;;;;;;5.25;4.85;;;;;;;19.79;74.93;96113.34;4897983;29;20643;-82
2022/08/07 04:25:33;;;;;;;4.10;3.80;;;;;;;19.95;75.61;96107.50;4895994;29;20663;-83
2022/08/07 04:27:59;;;;;;;6.32;4.70;;;;;;;19.99;74.50;96103.44;4897188;29;20293;-82
2022/08/07 04:30:27;;;;;;;5.32;4.65;;;;;;;20.05;73.78;96112.16;4895440;29;20209;-84
2022/08/07 04:32:54;;;;;;;5.28;4.82;;;;;;;19.96;73.09;96109.88;4892099;29;20361;-83
2022/08/07 04:35:21;;;;;;;4.70;4.38;;;;;;;19.88;73.78;96125.06;4885737;29;20847;-82
2022/08/07 04:37:47;;;;;;;4.40;4.00;;;;;;;19.80;74.00;96114.94;4910506;29;20734;-82
2022/08/07 04:40:14;;;;;;;4.80;4.40;;;;;;;19.71;73.53;96111.03;4891966;29;20211;-81
2022/08/07 04:42:41;;;;;;;4.43;4.10;;;;;;;19.76;74.14;96111.16;4914479;29;20261;-83
2022/08/07 04:45:10;;;;;;;4.80;4.40;;;;;;;19.79;74.17;96114.16;4908322;29;20195;-83
2022/08/07 04:47:45;;;;;;;4.53;4.18;;;;;;;19.89;72.66;96113.59;4885184;29;20214;-82
2022/08/07 04:50:18;;;;;;;4.60;4.30;;;;;;;19.75;72.87;96112.19;4897793;29;20258;-83
2022/08/07 04:52:51;;;;;;;5.82;4.65;;;;;;;19.60;73.11;96113.38;4916818;29;20283;-83
2022/08/07 04:55:23;;;;;;;5.07;4.68;;;;;;;19.38;73.94;96111.41;4906680;29;20262;-83
2022/08/07 04:57:54;;;;;;;5.45;4.95;;;;;;;19.27;74.55;96103.25;4897738;29;20206;-83
2022/08/07 05:00:37;;;;;;;5.00;4.60;;;;;;;19.25;75.10;96112.31;4885181;29;20232;-83
2022/08/07 05:03:15;;;;;;;5.28;4.40;;;;;;;19.24;75.22;96110.75;4893567;29;20278;-83
2022/08/07 05:05:45;;;;;;;4.22;3.92;;;;;;;19.24;75.50;96108.91;4899147;29;20639;-83
2022/08/07 05:08:17;;;;;;;4.57;4.28;;;;;;;19.23;74.65;96109.97;4900519;29;20643;-83
2022/08/07 05:10:48;;;;;;;8.90;4.70;;;;;;;19.21;73.95;96111.97;4899248;29;20314;-83
2022/08/07 05:13:19;;;;;;;4.10;3.80;;;;;;;19.18;73.92;96112.41;4898084;29;20270;-84
2022/08/07 05:15:50;;;;;;;4.60;4.20;;;;;;;19.23;73.54;96115.19;4898426;29;20207;-83
2022/08/07 05:18:22;;;;;;;5.53;4.18;;;;;;;19.27;73.84;96125.97;4898752;29;20279;-82
2022/08/07 05:20:53;;;;;;;4.32;4.00;;;;;;;19.09;74.21;96123.34;4898721;29;20647;-84
2022/08/07 05:23:22;;;;;;;4.75;4.35;;;;;;;19.04;73.80;96115.38;4901603;29;20246;-83
2022/08/07 05:25:52;;;;;;;4.00;3.70;;;;;;;18.97;73.59;96118.84;4902014;29;20356;-83
2022/08/07 05:28:20;;;;;;;4.40;3.80;;;;;;;19.03;73.84;96117.19;4901098;29;20282;-83
2022/08/07 05:30:47;;;;;;;5.13;4.35;;;;;;;19.02;73.43;96117.41;4889970;29;20701;-83
2022/08/07 05:33:14;;;;;;;3.97;3.67;;;;;;;18.92;73.25;96123.09;4882630;29;20676;-83
2022/08/07 05:35:43;;;;;;;4.10;3.67;;;;;;;18.91;73.26;96118.91;4883385;29;20208;-84
2022/08/07 05:38:11;;;;;;;3.50;3.20;;;;;;;18.85;73.20;96119.78;4882506;29;20223;-83
2022/08/07 05:40:39;;;;;;;3.45;3.15;;;;;;;18.83;72.94;96119.19;4883159;29;20264;-83
2022/08/07 05:43:05;;;;;;;3.80;3.50;;;;;;;18.87;72.62;96117.72;4882832;29;20235;-82
2022/08/07 05:45:33;;;;;;;3.95;3.38;;;;;;;19.00;72.27;96114.22;4882961;29;20254;-83
2022/08/07 05:48:02;;;;;;;3.45;3.15;;;;;;;18.95;72.19;96117.47;4883251;29;20232;-84
2022/08/07 05:50:30;;;;;;;3.40;3.05;;;;;;;18.94;71.75;96115.88;4882840;29;20207;-83
2022/08/07 05:52:57;;;;;;;4.45;3.20;;;;;;;18.99;71.78;96121.25;4882491;29;20231;-83
2022/08/07 05:55:24;;;;;;;3.53;3.22;;;;;;;19.03;70.71;96121.63;4891621;29;20271;-83
2022/08/07 05:57:52;;;;;;;3.00;2.80;;;;;;;19.01;70.75;96121.81;4901503;29;20211;-83
2022/08/07 06:00:19;;;;;;;3.53;2.67;;;;;;;19.03;70.47;96125.03;4902717;29;20215;-82
2022/08/07 06:02:50;;;;;;;2.95;2.75;;;;;;;19.13;69.99;96122.69;4901731;29;20246;-83
2022/08/07 06:05:18;;;;;;;2.58;2.38;;;;;;;19.26;69.75;96125.16;4902248;29;20267;-84
2022/08/07 06:07:45;;;;;;;3.00;2.75;;;;;;;19.21;68.71;96127.66;4902405;29;20207;-83
2022/08/07 06:10:13;;;;;;;2.78;2.58;;;;;;;19.25;68.57;96130.59;4901428;29;20211;-83
2022/08/07 06:12:39;;;;;;;2.63;2.42;;;;;;;19.33;69.18;96120.69;4904764;29;20235;-83
2022/08/07 06:15:08;;;;;;;2.72;2.53;;;;;;;19.16;67.95;96126.69;4907399;29;20218;-83
2022/08/07 06:17:35;;;;;;;2.60;2.40;;;;;;;19.10;68.52;96122.31;4903418;29;20211;-83
2022/08/07 06:20:02;;;;;;;3.95;2.80;;;;;;;19.14;68.79;96118.28;4906195;29;20250;-84
2022/08/07 06:22:30;;;;;;;2.83;2.60;;;;;;;19.33;68.44;96119.88;4906296;29;20234;-84
2022/08/07 06:24:57;;;;;;;5.15;2.72;;;;;;;19.42;66.99;96121.19;4907677;29;20425;-83
2022/08/07 06:27:25;;;;;;;3.05;2.63;;;;;;;19.27;67.38;96120.75;4906548;29;20210;-83
2022/08/07 06:29:52;;;;;;;2.72;2.50;;;;;;;19.25;67.66;96120.16;4906618;29;20293;-83
2022/08/07 06:32:19;;;;;;;3.53;2.15;;;;;;;19.34;67.97;96118.88;4901910;29;20211;-83
2022/08/07 06:34:45;;;;;;;6.10;5.32;;;;;;;19.40;66.97;96119.81;4900280;29;20210;-83
2022/08/07 06:37:11;;;;;;;13.57;12.27;;;;;;;19.52;66.38;96118.09;4900727;29;20203;-83
2022/08/07 06:39:38;;;;;;;3.10;2.80;;;;;;;19.57;65.66;96121.66;4900860;29;20231;-83
2022/08/07 06:42:08;;;;;;;3.40;2.53;;;;;;;19.44;65.66;96124.38;4899922;29;20294;-83
2022/08/07 06:44:39;;;;;;;2.70;2.33;;;;;;;19.44;66.55;96124.38;4900195;29;20251;-84
2022/08/07 06:47:06;;;;;;;3.88;2.30;;;;;;;19.55;66.68;96128.91;4900468;29;20234;-82
2022/08/07 06:49:33;;;;;;;6.00;2.60;;;;;;;19.67;66.94;96129.75;4899882;29;20687;-83
2022/08/07 06:52:00;;;;;;;2.35;2.25;;;;;;;19.73;65.74;96122.84;4899958;29;20218;-83
2022/08/07 06:54:27;;;;;;;2.58;2.38;;;;;;;19.72;64.57;96129.09;4900356;29;20286;-83
2022/08/07 06:56:54;;;;;;;2.45;2.25;;;;;;;19.70;64.71;96122.50;4901151;29;20262;-83
2022/08/07 06:59:25;;;;;;;2.80;2.10;;;;;;;19.73;64.42;96135.91;4900800;29;20291;-83
2022/08/07 07:01:55;;;;;;;2.38;2.17;;;;;;;19.73;64.51;96125.47;4901739;29;20246;-83
2022/08/07 07:04:21;;;;;;;2.55;2.17;;;;;;;19.74;64.11;96127.06;4901543;29;20249;-83
2022/08/07 07:06:48;;;;;;;2.10;2.00;;;;;;;19.82;63.19;96118.13;4900666;29;20203;-83
2022/08/07 07:09:21;;;;;;;2.88;2.55;;;;;;;19.90;63.43;96120.41;4901966;29;20230;-84
2022/08/07 07:12:00;;;;;;;2.20;2.10;;;;;;;19.89;63.10;96121.44;4902227;29;20211;-83
2022/08/07 07:14:29;;;;;;;2.25;2.05;;;;;;;20.10;63.25;96130.59;4901405;29;20278;-83
2022/08/07 07:16:59;;;;;;;9.60;8.65;;;;;;;20.13;62.29;96133.59;4901036;29;20298;-83
2022/08/07 07:19:32;;;;;;;10.73;6.38;;;;;;;20.45;62.48;96134.13;4900212;29;20230;-83
2022/08/07 07:22:00;;;;;;;3.05;2.80;;;;;;;20.61;60.35;96124.84;4901351;29;20203;-83
2022/08/07 07:24:27;;;;;;;5.25;4.22;;;;;;;20.74;60.51;96121.22;4900846;29;20298;-84
2022/08/07 07:26:59;;;;;;;3.17;2.88;;;;;;;20.62;61.56;96124.59;4903592;29;20235;-84
2022/08/07 07:29:30;;;;;;;2.53;2.30;;;;;;;20.42;61.43;96120.72;4903105;29;20234;-83
2022/08/07 07:32:02;;;;;;;2.35;2.15;;;;;;;20.37;61.40;96118.78;4901202;29;20582;-83
2022/08/07 07:34:31;;;;;;;2.83;2.55;;;;;;;20.32;61.31;96119.44;4900596;29;20262;-83
2022/08/07 07:37:00;;;;;;;6.90;5.78;;;;;;;20.42;61.89;96118.88;4901029;29;20211;-83
2022/08/07 07:39:28;;;;;;;4.40;2.28;;;;;;;20.51;61.30;96111.53;4901322;29;20294;-84
2022/08/07 07:41:57;;;;;;;2.75;2.53;;;;;;;20.78;60.36;96104.84;4901632;29;20210;-83
2022/08/07 07:44:27;;;;;;;2.47;2.00;;;;;;;20.97;59.82;96102.91;4901135;29;20239;-83
2022/08/07 07:46:55;;;;;;;2.58;2.38;;;;;;;20.85;59.12;96102.09;4900870;29;20739;-83
2022/08/07 07:49:26;;;;;;;2.53;2.33;;;;;;;20.95;58.57;96099.72;4900849;29;20652;-83
2022/08/07 07:51:55;;;;;;;4.13;2.17;;;;;;;21.12;57.73;96095.38;4900587;29;20214;-83
2022/08/07 07:54:23;;;;;;;3.90;2.30;;;;;;;21.14;57.82;96092.53;4900020;29;20241;-83
2022/08/07 07:56:52;;;;;;;2.95;2.20;;;;;;;21.20;57.91;96099.47;4901060;29;20203;-83
2022/08/07 07:59:19;;;;;;;3.35;2.28;;;;;;;21.19;56.77;96090.00;4900435;29;20330;-83
2022/08/07 08:01:49;;;;;;;2.00;1.90;;;;;;;21.03;56.29;96094.91;4899579;29;20207;-83
2022/08/07 08:04:18;;;;;;;2.40;2.20;;;;;;;20.96;56.93;96090.84;4898589;29;20242;-83
2022/08/07 08:06:47;;;;;;;1.90;1.80;;;;;;;20.90;56.05;96092.53;4900088;29;20211;-83
2022/08/07 08:09:16;;;;;;;2.25;2.05;;;;;;;20.76;57.26;96093.00;4899739;29;20234;-84
2022/08/07 08:11:43;;;;;;;1.75;1.65;;;;;;;20.60;57.38;96087.41;4899218;29;20235;-83
2022/08/07 08:14:10;;;;;;;2.30;1.95;;;;;;;20.54;56.38;96095.38;4898308;29;20314;-83
2022/08/07 08:16:39;;;;;;;1.88;1.73;;;;;;;20.46;56.70;96100.94;4899397;29;20679;-83
2022/08/07 08:19:09;;;;;;;1.95;1.75;;;;;;;20.50;56.04;96100.25;4899442;29;20230;-83
2022/08/07 08:27:15;;;;;;;1.80;1.70;;;;;;;20.96;55.87;96091.63;4899292;29;20218;-83
2022/08/07 08:29:48;;;;;;;2.08;1.80;;;;;;;21.26;55.54;96096.75;4899624;29;20290;-83
2022/08/07 08:32:17;;;;;;;2.35;1.70;;;;;;;21.37;55.72;96090.66;4899017;29;20215;-83
2022/08/07 08:34:46;;;;;;;2.33;2.13;;;;;;;21.29;53.96;96095.47;4898382;29;20222;-84
2022/08/07 08:37:14;;;;;;;2.40;2.00;;;;;;;21.10;53.80;96094.00;4899730;29;20211;-83
2022/08/07 08:39:44;;;;;;;2.03;1.83;;;;;;;21.09;54.30;96092.41;4899227;29;20227;-84
2022/08/07 08:42:19;;;;;;;2.03;1.92;;;;;;;21.23;54.59;96091.16;4899104;29;20207;-84
2022/08/07 08:45:02;;;;;;;2.03;1.80;;;;;;;21.14;53.98;96090.69;4899172;29;20263;-83
2022/08/07 08:47:40;;;;;;;2.53;1.95;;;;;;;21.35;55.00;96095.38;4901105;29;20595;-83
2022/08/07 08:50:14;;;;;;;1.90;1.80;;;;;;;21.54;53.41;96095.22;4900856;29;20230;-83
2022/08/07 08:52:49;;;;;;;2.85;2.00;;;;;;;21.58;54.04;96096.31;4900310;29;20230;-83
2022/08/07 08:55:21;;;;;;;1.77;1.58;;;;;;;21.67;52.20;96093.09;4900008;29;20214;-83
2022/08/07 08:57:58;;;;;;;1.98;1.73;;;;;;;21.70;52.40;96094.47;4904108;29;20235;-83
2022/08/07 09:00:29;;;;;;;1.92;1.83;;;;;;;21.79;53.07;96094.88;4904439;29;20210;-83
2022/08/07 09:02:59;;;;;;;2.38;1.80;;;;;;;21.74;52.07;96103.47;4903653;29;20264;-84
2022/08/07 09:05:36;;;;;;;2.50;2.10;;;;;;;21.69;52.18;96095.50;4903896;29;20203;-84
2022/08/07 09:08:17;;;;;;;2.88;1.92;;;;;;;21.90;52.68;96089.59;4904750;29;20202;-83
2022/08/07 09:10:52;;;;;;;2.83;1.80;;;;;;;21.89;52.02;96092.44;4904096;29;20278;-83
2022/08/07 09:13:30;;;;;;;1.90;1.80;;;;;;;21.91;52.67;96090.41;4903654;29;20309;-83
2022/08/07 09:16:04;;;;;;;2.38;2.03;;;;;;;21.91;52.17;96087.78;4902601;29;20207;-83
2022/08/07 09:18:56;;;;;;;1.90;1.80;;;;;;;22.02;52.82;96095.59;4904151;29;20251;-83
2022/08/07 09:21:33;;;;;;;2.20;1.88;;;;;;;22.31;52.09;96092.94;4902766;29;20221;-84
2022/08/07 09:24:10;;;;;;;1.90;1.80;;;;;;;22.40;51.39;96094.94;4903240;29;20658;-83
2022/08/07 09:26:45;;;;;;;3.20;1.88;;;;;;;22.38;50.69;96091.75;4902877;29;20210;-83
2022/08/07 09:29:22;;;;;;;2.15;1.95;;;;;;;22.32;51.12;96090.06;4903240;29;20253;-83
2022/08/07 09:31:57;;;;;;;2.83;1.92;;;;;;;22.32;50.11;96092.69;4883652;29;20676;-84
2022/08/07 09:34:28;;;;;;;2.40;2.20;;;;;;;22.22;50.30;96095.16;4883733;29;20238;-83
2022/08/07 09:37:01;;;;;;;3.05;2.20;;;;;;;22.15;50.98;96091.09;4884223;29;20214;-84
2022/08/07 09:39:41;;;;;;;5.88;5.38;;;;;;;22.12;50.84;96084.50;4884811;29;20231;-83
2022/08/07 09:42:15;;;;;;;4.63;4.22;;;;;;;22.21;51.35;96084.91;4884459;29;20562;-83
2022/08/07 09:44:48;;;;;;;2.28;2.08;;;;;;;22.21;51.29;96083.06;4885523;29;20620;-83
2022/08/07 09:47:28;;;;;;;2.15;1.98;;;;;;;22.35;51.38;96076.47;4885417;29;20216;-84
2022/08/07 09:50:01;;;;;;;2.90;2.58;;;;;;;22.64;50.71;96074.56;4885438;29;20231;-84
2022/08/07 09:52:34;;;;;;;2.40;2.20;;;;;;;22.71;49.46;96071.75;4884422;29;20557;-84
2022/08/07 09:55:08;;;;;;;2.90;2.70;;;;;;;22.63;50.31;96070.34;4889403;29;20207;-83
2022/08/07 09:58:19;;;;;;;5.72;4.07;;;;;;;22.87;50.09;96070.19;4902759;29;20654;-83
2022/08/07 10:01:04;;;;;;;2.30;2.10;;;;;;;22.91;49.36;96066.03;4902350;29;20299;-84
2022/08/07 10:04:05;;;;;;;2.50;2.08;;;;;;;22.86;49.35;96066.78;4902488;29;20265;-83
2022/08/07 10:06:53;;;;;;;1.90;1.80;;;;;;;23.15;49.28;96070.03;4903515;29;20269;-85
2022/08/07 10:09:40;;;;;;;1.80;1.70;;;;;;;23.68;48.06;96072.00;4906742;29;20611;-84
2022/08/07 10:12:16;;;;;;;1.95;1.80;;;;;;;23.71;47.88;96074.16;4906560;29;20214;-83
2022/08/07 10:15:08;;;;;;;4.60;2.17;;;;;;;23.88;46.74;96053.00;4907164;29;20230;-85
2022/08/07 10:18:01;;;;;;;2.17;1.98;;;;;;;24.02;46.73;96045.53;4908146;29;20742;-83
2022/08/07 10:20:38;;;;;;;3.90;2.00;;;;;;;24.26;46.58;96052.06;4905120;29;20225;-83
2022/08/07 10:23:27;;;;;;;3.33;1.90;;;;;;;24.47;45.53;96060.13;4906445;29;20230;-81
2022/08/07 10:26:05;;;;;;;2.75;2.03;;;;;;;24.70;44.94;96046.59;4905829;29;20275;-82
2022/08/07 10:28:49;;;;;;;6.07;5.22;;;;;;;25.23;45.18;96042.94;4906725;29;20242;-82
2022/08/07 10:31:48;;;;;;;3.90;3.60;;;;;;;25.15;43.77;96051.34;4904958;29;20210;-84
2022/08/07 10:34:30;;;;;;;3.25;2.47;;;;;;;25.03;45.10;96041.00;4902486;29;20230;-83
2022/08/07 10:37:13;;;;;;;3.78;2.63;;;;;;;24.87;44.62;96039.31;4903460;29;20607;-84
2022/08/07 10:39:53;;;;;;;1.90;1.80;;;;;;;24.72;44.50;96034.75;4903085;29;20254;-83
2022/08/07 10:42:29;;;;;;;2.60;2.20;;;;;;;24.89;44.77;96044.31;4901252;29;20282;-83
2022/08/07 10:45:02;;;;;;;2.30;1.90;;;;;;;25.09;44.21;96029.44;4902340;29;20230;-83
2022/08/07 10:47:40;;;;;;;1.88;1.75;;;;;;;25.12;43.16;96031.56;4904133;29;20251;-85
2022/08/07 10:50:12;;;;;;;1.90;1.80;;;;;;;25.18;43.14;96036.88;4901680;29;20231;-83
2022/08/07 10:52:51;;;;;;;2.75;1.95;;;;;;;24.96;44.13;96040.47;4901250;29;20758;-82
2022/08/07 10:55:22;;;;;;;2.40;2.20;;;;;;;24.96;44.14;96037.03;4902016;29;20230;-83
2022/08/07 10:58:01;;;;;;;3.08;2.00;;;;;;;25.26;43.96;96039.00;4902111;29;20211;-83
2022/08/07 11:00:34;;;;;;;2.53;1.80;;;;;;;25.33;43.58;96034.28;4901484;29;20270;-83
2022/08/07 11:03:07;;;;;;;3.00;1.83;;;;;;;25.32;43.45;96033.50;4901845;29;20230;-83
2022/08/07 11:05:44;;;;;;;2.10;2.00;;;;;;;25.43;43.17;96034.31;4901213;29;20246;-83
2022/08/07 11:08:17;;;;;;;2.25;1.90;;;;;;;25.35;42.88;96032.19;4902188;29;20226;-84
2022/08/07 11:10:51;;;;;;;2.08;1.98;;;;;;;25.35;43.11;96026.91;4900680;29;20254;-83
2022/08/07 11:13:25;;;;;;;2.83;2.17;;;;;;;25.01;42.42;96037.84;4900402;29;20290;-85
2022/08/07 11:15:55;;;;;;;1.90;1.80;;;;;;;24.87;42.78;96035.88;4900358;29;20223;-85
2022/08/07 11:18:31;;;;;;;1.80;1.70;;;;;;;25.11;43.49;96032.63;4900854;29;20223;-83
2022/08/07 11:21:05;;;;;;;2.67;2.45;;;;;;;25.02;44.43;96036.00;4900278;29;20274;-84
2022/08/07 11:23:41;;;;;;;13.85;12.55;;;;;;;25.18;43.68;96027.13;4903047;29;20241;-85
2022/08/07 11:26:13;;;;;;;5.22;2.88;;;;;;;25.45;43.34;96034.84;4902531;29;20659;-85
2022/08/07 11:28:45;;;;;;;2.47;2.05;;;;;;;25.73;42.54;96028.38;4902898;29;20219;-84
2022/08/07 11:31:21;;;;;;;2.17;1.98;;;;;;;25.75;41.89;96023.63;4899858;29;20203;-84
2022/08/07 11:33:55;;;;;;;2.97;2.28;;;;;;;25.95;42.01;96018.38;4900478;29;20242;-84
2022/08/07 11:36:37;;;;;;;2.45;2.28;;;;;;;26.20;41.96;96022.84;4900484;29;20231;-84
2022/08/07 11:39:15;;;;;;;2.45;2.25;;;;;;;26.14;41.61;96011.53;4901017;29;20222;-83
2022/08/07 11:41:47;;;;;;;2.90;2.20;;;;;;;25.97;41.53;96015.47;4899319;29;20631;-84
2022/08/07 11:44:23;;;;;;;1.83;1.73;;;;;;;26.00;41.08;96013.09;4900023;29;20238;-84
2022/08/07 11:47:00;;;;;;;2.00;1.90;;;;;;;25.67;41.38;96003.03;4900770;29;20270;-84
2022/08/07 11:50:02;;;;;;;3.30;1.90;;;;;;;25.61;41.00;96015.38;4900151;29;20253;-84
2022/08/07 11:52:45;;;;;;;2.47;2.28;;;;;;;25.51;41.02;96011.94;4900350;29;20277;-84
2022/08/07 11:55:20;;;;;;;2.05;1.90;;;;;;;25.56;41.43;96007.47;4900346;29;20255;-84
2022/08/07 11:57:55;;;;;;;5.45;5.05;;;;;;;25.54;41.45;96001.66;4900535;29;20295;-84